createdAt,value
2018-07-28T00:00:16.064Z,25.27
2018-07-28T00:03:15.447Z,25.26
2018-07-28T00:06:15.919Z,25.36
2018-07-28T00:09:15.205Z,25.39
2018-07-28T00:12:15.483Z,25.41
2018-07-28T00:15:16.075Z,25.58
2018-07-28T00:18:15.596Z,25.62
2018-07-28T00:21:15.831Z,25.67
2018-07-28T00:24:15.424Z,25.68
2018-07-28T00:27:15.946Z,25.74
2018-07-28T00:30:15.404Z,25.85
2018-07-28T00:33:15.765Z,25.87
2018-07-28T00:36:15.138Z,26.00
2018-07-28T00:39:15.529Z,26.02
2018-07-28T00:42:15.852Z,26.08
2018-07-28T00:45:15.167Z,26.26
2018-07-28T00:48:15.498Z,26.24
2018-07-28T00:51:15.787Z,26.18
2018-07-28T00:54:15.161Z,26.25
2018-07-28T00:57:15.418Z,26.39
2018-07-28T01:00:15.910Z,26.40
2018-07-28T01:03:15.413Z,26.40
2018-07-28T01:06:15.758Z,26.44
2018-07-28T01:09:15.102Z,26.66
2018-07-28T01:12:15.222Z,26.66
2018-07-28T01:15:15.553Z,26.86
2018-07-28T01:18:15.919Z,26.97
2018-07-28T01:21:15.270Z,27.00
2018-07-28T01:24:15.515Z,27.05
2018-07-28T01:27:15.832Z,27.09
2018-07-28T01:30:15.005Z,27.37
2018-07-28T01:33:15.847Z,27.40
2018-07-28T01:36:15.020Z,27.38
2018-07-28T01:39:15.233Z,27.47
2018-07-28T01:42:15.358Z,27.62
2018-07-28T01:45:15.530Z,27.69
2018-07-28T01:48:15.731Z,27.76
2018-07-28T01:51:15.017Z,27.81
2018-07-28T01:54:15.132Z,27.72
2018-07-28T01:57:20.367Z,27.91
2018-07-28T02:00:15.611Z,28.05
2018-07-28T02:03:16.817Z,28.17
2018-07-28T02:06:15.072Z,28.27
2018-07-28T02:09:15.309Z,28.24
2018-07-28T02:12:15.474Z,28.38
2018-07-28T02:15:15.639Z,28.35
2018-07-28T02:18:15.873Z,28.50
2018-07-28T02:21:14.963Z,28.42
2018-07-28T02:24:15.151Z,28.49
2018-07-28T02:27:15.308Z,28.58
2018-07-28T02:30:15.532Z,28.55
2018-07-28T02:33:15.733Z,28.76
2018-07-28T02:36:15.948Z,28.73
2018-07-28T02:39:15.530Z,28.65
2018-07-28T02:42:15.703Z,28.80
2018-07-28T02:45:15.913Z,28.86
2018-07-28T02:48:15.209Z,29.10
2018-07-28T02:51:15.361Z,29.26
2018-07-28T02:54:15.520Z,29.16
2018-07-28T02:57:15.686Z,29.31
2018-07-28T03:00:16.114Z,29.37
2018-07-28T03:03:15.287Z,29.29
2018-07-28T03:06:15.492Z,29.23
2018-07-28T03:09:15.728Z,29.33
2018-07-28T03:12:14.995Z,29.31
2018-07-28T03:15:15.373Z,29.45
2018-07-28T03:18:15.272Z,29.38
2018-07-28T03:21:15.555Z,29.58
2018-07-28T03:24:15.738Z,29.65
2018-07-28T03:27:14.998Z,29.68
2018-07-28T03:30:15.267Z,29.72
2018-07-28T03:33:14.992Z,29.96
2018-07-28T03:36:15.213Z,30.17
2018-07-28T03:39:15.308Z,30.27
2018-07-28T03:42:15.457Z,30.43
2018-07-28T03:45:15.551Z,30.69
2018-07-28T03:48:15.806Z,30.71
2018-07-28T03:51:14.952Z,30.57
2018-07-28T03:54:15.171Z,30.68
2018-07-28T03:57:15.199Z,30.41
2018-07-28T04:00:20.656Z,30.44
2018-07-28T04:03:15.856Z,30.48
2018-07-28T04:06:15.034Z,30.66
2018-07-28T04:09:15.140Z,30.58
2018-07-28T04:12:15.357Z,30.57
2018-07-28T04:15:15.549Z,30.76
2018-07-28T04:18:15.734Z,30.94
2018-07-28T04:21:16.077Z,30.79
2018-07-28T04:24:15.293Z,30.93
2018-07-28T04:27:15.717Z,30.79
2018-07-28T04:30:15.950Z,30.85
2018-07-28T04:33:15.227Z,30.86
2018-07-28T04:36:15.415Z,30.75
2018-07-28T04:39:15.582Z,30.75
2018-07-28T04:42:15.789Z,30.56
2018-07-28T04:45:15.792Z,30.45
2018-07-28T04:48:15.093Z,30.28
2018-07-28T04:51:15.380Z,30.08
2018-07-28T04:54:15.641Z,29.86
2018-07-28T04:57:21.053Z,29.52
2018-07-28T05:00:15.734Z,28.85
2018-07-28T05:03:25.287Z,27.74
2018-07-28T05:06:15.536Z,26.51
2018-07-28T05:09:15.971Z,25.23
2018-07-28T05:12:15.575Z,22.72
2018-07-28T05:15:15.296Z,21.63
2018-07-28T05:18:15.980Z,20.95
2018-07-28T05:21:15.679Z,20.73
2018-07-28T05:24:15.407Z,21.08
2018-07-28T05:27:16.015Z,20.98
2018-07-28T05:30:15.836Z,21.17
2018-07-28T05:33:15.549Z,21.60
2018-07-28T05:36:16.135Z,21.32
2018-07-28T05:39:15.924Z,21.30
2018-07-28T05:42:15.534Z,20.90
2018-07-28T05:45:16.024Z,20.07
2018-07-28T05:48:15.731Z,20.33
2018-07-28T05:51:15.416Z,20.01
2018-07-28T05:54:16.222Z,20.39
2018-07-28T05:57:15.982Z,20.71
2018-07-28T06:00:15.721Z,23.26
2018-07-28T06:03:15.327Z,25.94
2018-07-28T06:06:16.059Z,27.08
2018-07-28T06:09:15.694Z,26.94
2018-07-28T06:12:15.409Z,26.17
2018-07-28T06:15:16.002Z,25.57
2018-07-28T06:18:15.966Z,24.69
2018-07-28T06:21:15.657Z,24.71
2018-07-28T06:24:15.489Z,24.60
2018-07-28T06:27:15.527Z,25.40
2018-07-28T06:30:16.262Z,25.77
2018-07-28T06:33:15.917Z,25.84
2018-07-28T06:36:15.494Z,25.68
2018-07-28T06:39:16.216Z,25.62
2018-07-28T06:42:15.808Z,26.52
2018-07-28T06:45:15.841Z,27.41
2018-07-28T06:48:15.666Z,28.67
2018-07-28T06:51:15.251Z,28.96
2018-07-28T06:54:15.804Z,29.20
2018-07-28T06:57:15.408Z,28.97
2018-07-28T07:00:16.044Z,28.96
2018-07-28T07:03:15.722Z,29.03
2018-07-28T07:06:16.245Z,29.42
2018-07-28T07:09:15.951Z,30.12
2018-07-28T07:12:15.650Z,30.58
2018-07-28T07:15:16.442Z,30.71
2018-07-28T07:18:16.235Z,30.36
2018-07-28T07:21:15.964Z,29.96
2018-07-28T07:24:15.692Z,29.98
2018-07-28T07:27:15.355Z,30.03
2018-07-28T07:30:15.848Z,30.25
2018-07-28T07:33:15.451Z,30.45
2018-07-28T07:36:16.201Z,31.09
2018-07-28T07:39:15.764Z,31.90
2018-07-28T07:42:16.169Z,32.56
2018-07-28T07:45:15.762Z,32.80
2018-07-28T07:48:16.098Z,32.85
2018-07-28T07:51:15.580Z,32.88
2018-07-28T07:54:15.595Z,32.58
2018-07-28T07:57:16.086Z,32.17
2018-07-28T08:00:15.557Z,31.85
2018-07-28T08:03:15.196Z,31.44
2018-07-28T08:06:15.659Z,30.97
2018-07-28T08:09:16.157Z,30.55
2018-07-28T08:12:15.663Z,30.17
2018-07-28T08:15:15.386Z,29.72
2018-07-28T08:18:16.049Z,29.10
2018-07-28T08:21:15.686Z,28.83
2018-07-28T08:24:15.406Z,29.10
2018-07-28T08:27:16.147Z,29.19
2018-07-28T08:30:15.773Z,28.81
2018-07-28T08:33:15.541Z,28.23
2018-07-28T08:36:16.204Z,27.67
2018-07-28T08:39:15.929Z,27.38
2018-07-28T08:42:15.528Z,26.97
2018-07-28T08:45:16.196Z,26.65
2018-07-28T08:48:16.048Z,26.24
2018-07-28T08:51:15.723Z,26.44
2018-07-28T08:54:16.238Z,27.01
2018-07-28T08:57:15.861Z,27.04
2018-07-28T09:00:15.450Z,27.05
2018-07-28T09:03:16.265Z,26.91
2018-07-28T09:06:15.856Z,26.69
2018-07-28T09:09:15.531Z,26.32
2018-07-28T09:12:16.211Z,26.66
2018-07-28T09:15:15.928Z,26.40
2018-07-28T09:18:15.764Z,26.55
2018-07-28T09:21:15.701Z,26.55
2018-07-28T09:24:16.287Z,26.25
2018-07-28T09:27:16.101Z,25.93
2018-07-28T09:30:15.826Z,25.19
2018-07-28T09:33:15.485Z,22.39
2018-07-28T09:36:16.242Z,19.67
2018-07-28T09:39:16.055Z,17.91
2018-07-28T09:42:15.668Z,16.38
2018-07-28T09:45:16.336Z,15.39
2018-07-28T09:48:15.946Z,15.71
2018-07-28T09:51:15.731Z,15.51
2018-07-28T09:54:15.384Z,14.38
2018-07-28T09:57:16.188Z,14.87
2018-07-28T10:00:16.017Z,16.44
2018-07-28T10:03:16.058Z,15.96
2018-07-28T10:06:15.437Z,15.89
2018-07-28T10:09:16.066Z,17.10
2018-07-28T10:12:15.708Z,20.29
2018-07-28T10:15:15.389Z,21.84
2018-07-28T10:18:16.113Z,22.60
2018-07-28T10:21:15.808Z,22.80
2018-07-28T10:24:15.459Z,22.73
2018-07-28T10:27:16.058Z,22.91
2018-07-28T10:30:15.780Z,23.13
2018-07-28T10:33:15.637Z,22.78
2018-07-28T10:36:16.443Z,22.33
2018-07-28T10:39:16.168Z,20.84
2018-07-28T10:42:15.736Z,18.50
2018-07-28T10:45:15.422Z,17.60
2018-07-28T10:48:16.038Z,17.80
2018-07-28T10:51:15.579Z,15.27
2018-07-28T10:54:16.238Z,15.14
2018-07-28T10:57:15.790Z,17.73
2018-07-28T11:00:16.034Z,16.35
2018-07-28T11:03:15.772Z,18.06
2018-07-28T11:06:15.482Z,19.62
2018-07-28T11:09:16.163Z,20.01
2018-07-28T11:12:15.974Z,17.40
2018-07-28T11:15:15.589Z,16.21
2018-07-28T11:18:16.214Z,15.31
2018-07-28T11:21:15.879Z,14.47
2018-07-28T11:24:15.909Z,15.37
2018-07-28T11:27:15.528Z,16.20
2018-07-28T11:30:16.217Z,15.28
2018-07-28T11:33:15.832Z,15.51
2018-07-28T11:36:16.269Z,16.69
2018-07-28T11:39:16.542Z,14.42
2018-07-28T11:42:16.370Z,15.24
2018-07-28T11:45:15.579Z,17.32
2018-07-28T11:48:16.274Z,19.01
2018-07-28T11:51:15.894Z,19.40
2018-07-28T11:54:15.493Z,18.15
2018-07-28T11:57:16.145Z,17.60
2018-07-28T12:00:16.010Z,18.16
2018-07-28T12:03:15.824Z,19.09
2018-07-28T12:06:15.464Z,19.06
2018-07-28T12:09:16.133Z,19.65
2018-07-28T12:12:15.940Z,20.27
2018-07-28T12:15:15.583Z,20.81
2018-07-28T12:18:16.316Z,21.13
2018-07-28T12:21:15.912Z,21.00
2018-07-28T12:24:15.668Z,21.12
2018-07-28T12:27:15.337Z,20.59
2018-07-28T12:30:16.149Z,20.69
2018-07-28T12:33:15.806Z,20.70
2018-07-28T12:36:15.530Z,20.92
2018-07-28T12:39:16.203Z,21.00
2018-07-28T12:42:15.871Z,20.25
2018-07-28T12:45:15.416Z,19.85
2018-07-28T12:48:16.101Z,20.81
2018-07-28T12:51:15.848Z,20.85
2018-07-28T12:54:15.555Z,20.83
2018-07-28T12:57:16.222Z,21.79
2018-07-28T13:00:15.793Z,22.87
2018-07-28T13:03:15.394Z,23.22
2018-07-28T13:06:16.053Z,23.61
2018-07-28T13:09:15.625Z,23.15
2018-07-28T13:12:16.254Z,22.70
2018-07-28T13:15:15.933Z,22.31
2018-07-28T13:18:15.701Z,22.68
2018-07-28T13:21:15.490Z,23.40
2018-07-28T13:24:16.123Z,23.87
2018-07-28T13:27:15.893Z,24.50
2018-07-28T13:30:15.578Z,25.52
2018-07-28T13:33:16.336Z,25.92
2018-07-28T13:36:16.102Z,26.43
2018-07-28T13:39:15.956Z,26.64
2018-07-28T13:42:15.700Z,26.25
2018-07-28T13:45:15.687Z,26.19
2018-07-28T13:48:16.313Z,26.28
2018-07-28T13:51:16.129Z,26.33
2018-07-28T13:54:15.884Z,26.56
2018-07-28T13:57:15.471Z,27.00
2018-07-28T14:00:15.555Z,27.03
2018-07-28T14:03:15.518Z,27.14
2018-07-28T14:06:16.240Z,27.00
2018-07-28T14:09:21.015Z,27.41
2018-07-28T14:12:15.718Z,27.92
2018-07-28T14:15:16.247Z,28.23
2018-07-28T14:18:16.064Z,28.80
2018-07-28T14:21:16.034Z,29.25
2018-07-28T14:24:15.698Z,29.80
2018-07-28T14:27:15.441Z,30.17
2018-07-28T14:30:16.253Z,30.01
2018-07-28T14:33:16.035Z,29.53
2018-07-28T14:36:15.689Z,29.39
2018-07-28T14:39:15.412Z,28.99
2018-07-28T14:42:16.202Z,28.75
2018-07-28T14:45:15.657Z,28.30
2018-07-28T14:48:16.682Z,27.83
2018-07-28T14:51:15.359Z,27.96
2018-07-28T14:54:16.019Z,27.85
2018-07-28T14:57:15.885Z,27.76
2018-07-28T15:00:16.485Z,27.91
2018-07-28T15:03:15.395Z,27.69
2018-07-28T15:06:16.164Z,27.75
2018-07-28T15:09:15.919Z,28.07
2018-07-28T15:12:15.653Z,28.28
2018-07-28T15:15:16.351Z,28.43
2018-07-28T15:18:16.092Z,28.30
2018-07-28T15:21:15.933Z,28.13
2018-07-28T15:24:15.542Z,27.99
2018-07-28T15:27:16.152Z,28.02
2018-07-28T15:30:15.996Z,28.03
2018-07-28T15:33:15.569Z,28.34
2018-07-28T15:36:16.239Z,28.45
2018-07-28T15:39:16.145Z,28.60
2018-07-28T15:42:15.755Z,29.24
2018-07-28T15:45:15.578Z,29.54
2018-07-28T15:48:17.400Z,29.63
2018-07-28T15:51:15.431Z,29.51
2018-07-28T15:54:16.019Z,29.63
2018-07-28T15:57:15.645Z,29.46
2018-07-28T16:00:15.411Z,29.21
2018-07-28T16:03:16.023Z,29.24
2018-07-28T16:06:16.202Z,30.07
2018-07-28T16:09:15.837Z,30.48
2018-07-28T16:12:15.412Z,30.71
2018-07-28T16:15:16.026Z,30.93
2018-07-28T16:18:15.752Z,31.09
2018-07-28T16:21:15.451Z,31.16
2018-07-28T16:24:16.177Z,31.26
2018-07-28T16:27:15.780Z,31.00
2018-07-28T16:30:15.564Z,30.76
2018-07-28T16:33:16.194Z,30.38
2018-07-28T16:36:15.867Z,29.98
2018-07-28T16:39:15.480Z,29.63
2018-07-28T16:42:16.425Z,29.34
2018-07-28T16:45:16.047Z,28.77
2018-07-28T16:48:15.668Z,28.29
2018-07-28T16:51:16.272Z,28.12
2018-07-28T16:54:16.088Z,28.07
2018-07-28T16:57:15.728Z,28.13
2018-07-28T17:00:15.394Z,28.13
2018-07-28T17:03:16.172Z,28.19
2018-07-28T17:06:16.364Z,28.21
2018-07-28T17:09:15.968Z,28.28
2018-07-28T17:12:15.555Z,28.30
2018-07-28T17:15:16.443Z,28.33
2018-07-28T17:18:16.146Z,28.37
2018-07-28T17:21:15.895Z,28.30
2018-07-28T17:24:16.091Z,28.30
2018-07-28T17:27:15.793Z,28.34
2018-07-28T17:30:15.811Z,28.36
2018-07-28T17:33:15.839Z,28.17
2018-07-28T17:36:15.878Z,28.15
2018-07-28T17:39:16.034Z,28.06
2018-07-28T17:42:16.183Z,27.96
2018-07-28T17:45:16.408Z,27.81
2018-07-28T17:48:16.557Z,27.58
2018-07-28T17:51:16.002Z,27.50
2018-07-28T17:54:16.424Z,27.58
2018-07-28T17:57:16.538Z,27.76
2018-07-28T18:00:16.697Z,27.86
2018-07-28T18:03:15.851Z,28.13
2018-07-28T18:06:16.034Z,28.35
2018-07-28T18:09:16.449Z,28.54
2018-07-28T18:12:15.707Z,28.76
2018-07-28T18:15:15.831Z,28.79
2018-07-28T18:18:32.502Z,28.93
2018-07-28T18:21:15.438Z,35.50
2018-07-28T18:24:15.398Z,36.22
2018-07-28T18:27:15.517Z,36.69
2018-07-28T18:30:16.268Z,36.79
2018-07-28T18:33:15.981Z,36.66
2018-07-28T18:36:15.573Z,37.14
2018-07-28T18:39:15.443Z,37.13
2018-07-28T18:42:33.705Z,37.68
2018-07-28T19:05:50.546Z,39.92
2018-07-28T19:06:16.263Z,40.82
2018-07-28T19:09:16.075Z,40.19
2018-07-28T19:12:15.632Z,40.17
2018-07-28T19:15:16.020Z,40.31
2018-07-28T19:18:17.032Z,40.74
2018-07-28T19:21:16.807Z,41.31
2018-07-28T19:24:16.028Z,41.02
2018-07-28T19:27:15.697Z,40.90
2018-07-28T19:30:15.697Z,40.94
2018-07-28T19:33:15.449Z,41.89
2018-07-28T19:36:15.290Z,41.89
2018-07-28T19:39:16.017Z,43.19
2018-07-28T19:42:16.262Z,42.28
2018-07-28T19:45:16.068Z,42.55
2018-07-28T19:48:16.024Z,42.14
2018-07-28T19:51:15.989Z,42.93
2018-07-28T19:54:16.099Z,43.28
2018-07-28T19:57:16.209Z,43.35
2018-07-28T20:00:16.149Z,42.70
2018-07-28T20:03:17.157Z,43.16
2018-07-28T20:06:17.118Z,42.99
2018-07-28T20:09:21.553Z,43.16
2018-07-28T20:12:25.944Z,43.60
2018-07-28T20:15:19.544Z,43.50
2018-07-28T20:18:17.824Z,44.11
2018-07-28T20:21:23.376Z,44.23
2018-07-28T20:24:28.071Z,44.37
2018-07-28T20:27:31.982Z,45.25
2018-07-28T20:30:15.634Z,44.14
2018-07-28T20:33:15.697Z,44.12
2018-07-28T20:36:15.369Z,44.68
2018-07-28T20:39:16.379Z,44.53
2018-07-28T20:42:15.379Z,44.90
2018-07-28T20:45:15.389Z,43.93
2018-07-28T20:48:15.881Z,44.25
2018-07-28T20:51:15.758Z,44.47
2018-07-28T20:54:15.721Z,44.21
2018-07-28T20:57:15.549Z,44.31
2018-07-28T21:00:16.028Z,45.06
2018-07-28T21:03:16.042Z,44.06
2018-07-28T21:06:15.638Z,44.37
2018-07-28T21:09:15.303Z,44.46
2018-07-28T21:12:15.657Z,44.78
2018-07-28T21:15:15.978Z,44.80
2018-07-28T21:18:15.410Z,44.59
2018-07-28T21:21:15.203Z,44.65
2018-07-28T21:24:15.512Z,44.13
2018-07-28T21:27:15.713Z,44.27
2018-07-28T21:30:15.063Z,44.18
2018-07-28T21:33:15.357Z,43.90
2018-07-28T21:36:15.519Z,43.97
2018-07-28T21:39:15.854Z,43.90
2018-07-28T21:42:15.210Z,43.91
2018-07-28T21:45:15.402Z,43.97
2018-07-28T21:51:15.879Z,44.54
2018-07-28T21:54:15.163Z,44.67
2018-07-28T21:57:15.346Z,44.84
2018-07-28T22:00:15.886Z,44.54
2018-07-28T22:03:15.972Z,44.61
2018-07-28T22:06:15.970Z,44.54
2018-07-28T22:09:17.021Z,44.67
2018-07-28T22:12:15.264Z,44.61
2018-07-28T22:15:15.381Z,44.33
2018-07-28T22:18:15.216Z,44.73
2018-07-28T22:21:15.349Z,44.42
2018-07-28T22:24:16.004Z,44.59
2018-07-28T22:27:15.490Z,44.66
2018-07-28T22:30:15.542Z,45.07
2018-07-28T22:33:16.030Z,44.81
2018-07-28T22:36:15.603Z,45.96
2018-07-28T22:39:15.728Z,45.09
2018-07-28T22:42:15.638Z,45.54
2018-07-28T22:45:15.875Z,45.50
2018-07-28T22:48:15.558Z,45.29
2018-07-28T22:51:15.360Z,45.47
2018-07-28T22:54:15.281Z,45.40
2018-07-28T22:57:16.219Z,45.58
2018-07-28T23:00:15.450Z,45.94
2018-07-28T23:03:15.659Z,45.70
2018-07-28T23:06:15.961Z,46.17
2018-07-28T23:09:15.982Z,45.95
2018-07-28T23:12:15.899Z,46.25
2018-07-28T23:15:15.995Z,46.52
2018-07-28T23:18:16.098Z,46.24
2018-07-28T23:21:15.637Z,47.22
2018-07-28T23:24:15.885Z,46.42
2018-07-28T23:27:15.868Z,46.91
2018-07-28T23:30:15.378Z,46.69
2018-07-28T23:33:15.747Z,46.68
2018-07-28T23:36:15.135Z,46.46
2018-07-28T23:39:15.875Z,46.53
2018-07-28T23:42:15.522Z,46.69
2018-07-28T23:45:15.313Z,47.21
2018-07-28T23:48:15.777Z,47.51
2018-07-28T23:51:15.527Z,46.85
2018-07-28T23:54:15.048Z,47.11
2018-07-28T23:57:15.430Z,47.02
